Forside
METAR-TAF:

METAR-TAF

Lufthavne :

Anoka County-Blaine Airport (Janes Field)

Minneapolis / Blaine, Minnesota, USA

Breddekreds: 45-09N, længdekreds: 093-13W, højde: 278 m

Aktuelle vejr

Denne rapport blev lavet for 12 minutter siden, kl. 03:35 UTC
Vind stille
Temperatur -20°C
Fugtighed 77%
Tryk 1023 hPa
Sigt: 16.1 km
skyfri

METAR: KANE 110335Z AUTO 00000KT 10SM CLR M20/M23 A3020 RMK AO2

Tid: 21:47 (03:47 UTC)


TAF: fraværende

Vejrobservationer og prognoser fra mere end 4000 lufthavne (METAR og TAF).

De gule og røde prikker repræsenterer de meteorologiske stationer.

Flyt musen over at se navnet på stationen.

Så klik over at se vejr observationer og prognoser.

At skifte det kort: Klik på de grønne knapper med et sort kors for at zoome ind; på den grønne knap med en bindestreg for at zoome ud; eller på de grønne pile for tilstødende kort.


METAR-TAF: